Time;durP1;ratioP1;P1;durP2;ratioP2;P2;SDS_P1;SDS_P2;PMS_P1;PMS_P2;Temp;Humidity;BMP_temperature;BMP_pressure;BME280_temperature;BME280_humidity;BME280_pressure;Samples;Min_cycle;Max_cycle;Signal;HPM_P1;HPM_P2
2022/03/04 00:01:55;;;;;;;10.38;6.50;;;;;;;18.72;39.59;96932.72;10524613;28;20495;-56
2022/03/04 00:07:14;;;;;;;11.50;6.80;;;;;;;18.69;39.40;96928.72;10530427;28;20044;-56
2022/03/04 00:12:34;;;;;;;10.18;6.63;;;;;;;18.69;39.25;96936.03;10519420;28;20060;-56
2022/03/04 00:17:53;;;;;;;10.32;6.05;;;;;;;18.69;39.34;96934.13;10532068;28;20040;-56
2022/03/04 00:23:13;;;;;;;10.48;6.10;;;;;;;18.67;39.17;96941.72;10523670;28;20499;-57
2022/03/04 00:28:33;;;;;;;12.73;6.68;;;;;;;18.67;39.25;96933.63;10525158;28;20052;-57
2022/03/04 00:33:53;;;;;;;10.75;6.00;;;;;;;18.66;39.21;96940.16;10510519;28;20071;-56
2022/03/04 00:39:13;;;;;;;9.80;5.85;;;;;;;18.65;39.07;96943.97;10514198;28;20173;-56
2022/03/04 00:44:33;;;;;;;10.60;6.03;;;;;;;18.65;39.09;96938.56;10529147;28;20380;-56
2022/03/04 00:49:52;;;;;;;10.60;5.43;;;;;;;18.65;38.97;96937.78;10520907;28;20063;-57
2022/03/04 00:55:13;;;;;;;8.70;5.57;;;;;;;18.63;39.02;96951.56;10498876;28;20124;-56
2022/03/04 01:00:34;;;;;;;10.07;6.40;;;;;;;18.61;38.92;96943.00;10517182;28;20055;-56
2022/03/04 01:05:53;;;;;;;10.40;5.65;;;;;;;18.60;38.95;96946.78;10518643;28;20041;-56
2022/03/04 01:11:13;;;;;;;10.30;6.10;;;;;;;18.59;38.97;96939.81;10517045;28;20127;-56
2022/03/04 01:16:33;;;;;;;9.27;6.18;;;;;;;18.59;38.89;96937.13;10516462;28;20137;-56
2022/03/04 01:21:52;;;;;;;9.10;5.53;;;;;;;18.57;38.74;96925.84;10511608;28;20124;-56
2022/03/04 01:27:12;;;;;;;10.15;5.70;;;;;;;18.56;38.68;96924.25;10514237;28;20054;-56
2022/03/04 01:32:32;;;;;;;8.50;5.53;;;;;;;18.55;38.75;96934.25;10513581;28;20064;-56
2022/03/04 01:37:51;;;;;;;8.82;5.40;;;;;;;18.55;38.49;96938.84;10504779;28;20055;-56
2022/03/04 01:43:11;;;;;;;8.73;6.00;;;;;;;18.53;38.52;96935.69;10533651;28;20032;-56
2022/03/04 01:48:31;;;;;;;8.50;5.20;;;;;;;18.52;38.68;96942.16;10525431;28;20062;-56
2022/03/04 01:53:50;;;;;;;7.07;4.85;;;;;;;18.51;38.48;96938.69;10531045;28;20051;-56
2022/03/04 01:59:10;;;;;;;7.32;5.50;;;;;;;18.51;38.48;89450.22;10526580;28;20056;-56
2022/03/04 02:04:29;;;;;;;7.40;5.03;;;;;;;18.47;38.46;96943.13;10507671;28;20048;-57
2022/03/04 02:09:49;;;;;;;7.78;4.97;;;;;;;18.47;38.53;96936.94;10512262;28;20047;-56
2022/03/04 02:15:09;;;;;;;7.25;5.18;;;;;;;18.46;38.52;96940.72;10529920;28;20040;-56
2022/03/04 02:20:30;;;;;;;7.82;4.93;;;;;;;18.44;38.39;96934.84;10527095;28;20400;-57
2022/03/04 02:25:51;;;;;;;7.78;4.80;;;;;;;18.44;38.45;96945.66;10510559;28;20044;-56
2022/03/04 02:31:15;;;;;;;8.38;4.65;;;;;;;18.42;38.27;96945.94;10531480;28;20453;-56
2022/03/04 02:36:37;;;;;;;5.63;4.32;;;;;;;18.41;38.34;96947.06;10533725;28;20052;-57
2022/03/04 02:41:57;;;;;;;6.85;4.90;;;;;;;18.40;38.29;96952.78;10517079;28;20068;-57
2022/03/04 02:47:16;;;;;;;7.10;4.68;;;;;;;18.39;38.39;96957.38;10533517;28;20048;-56
2022/03/04 02:52:36;;;;;;;7.93;4.38;;;;;;;18.37;38.33;96957.69;10539733;28;20040;-56
2022/03/04 02:57:56;;;;;;;6.60;4.50;;;;;;;18.36;38.14;96955.28;10510520;28;20047;-56
2022/03/04 03:03:15;;;;;;;6.40;4.82;;;;;;;18.34;38.20;96955.59;10517079;28;20051;-56
2022/03/04 03:08:34;;;;;;;6.05;4.65;;;;;;;18.34;38.11;96955.59;10522972;28;20434;-56
2022/03/04 03:13:53;;;;;;;;;;;;;;;18.33;37.81;96948.63;10535491;28;20043;-57
2022/03/04 03:19:13;;;;;;;4.93;4.07;;;;;;;18.31;38.18;96947.38;10527865;28;20335;-56
2022/03/04 03:24:32;;;;;;;7.38;4.85;;;;;;;18.30;38.10;96943.84;10518665;28;20048;-56
2022/03/04 03:29:53;;;;;;;5.80;4.30;;;;;;;18.29;38.19;96941.50;10534364;28;20056;-56
2022/03/04 03:35:12;;;;;;;5.97;4.47;;;;;;;18.28;38.11;96948.75;10533858;28;20052;-56
2022/03/04 03:40:32;;;;;;;7.28;4.50;;;;;;;18.27;38.07;96951.75;10507412;28;20110;-57
2022/03/04 03:45:51;;;;;;;6.38;4.40;;;;;;;18.25;38.01;96964.78;10523272;28;20056;-56
2022/03/04 03:51:12;;;;;;;6.50;4.47;;;;;;;18.24;37.94;96961.28;10530412;28;20040;-57
2022/03/04 03:56:31;;;;;;;5.05;4.25;;;;;;;18.23;37.85;96975.88;10515708;28;20462;-56
2022/03/04 04:01:50;;;;;;;5.03;4.10;;;;;;;18.21;37.96;96978.09;10502975;28;20454;-56
2022/03/04 04:07:11;;;;;;;6.10;4.25;;;;;;;18.21;37.91;96975.41;10507168;28;20182;-56
2022/03/04 04:12:31;;;;;;;4.65;3.92;;;;;;;18.20;38.05;96983.78;10522440;28;20044;-56
2022/03/04 04:17:50;;;;;;;5.78;4.10;;;;;;;18.18;37.89;96982.19;10517296;28;20040;-56
2022/03/04 04:23:09;;;;;;;5.22;4.05;;;;;;;18.18;37.99;96978.72;10521036;28;20040;-56
2022/03/04 04:28:29;;;;;;;5.00;3.97;;;;;;;18.15;37.76;96979.31;10522824;28;20059;-56
2022/03/04 04:33:48;;;;;;;5.95;4.38;;;;;;;18.14;37.87;96980.44;10523169;28;20075;-56
2022/03/04 04:39:08;;;;;;;4.95;3.85;;;;;;;18.14;37.72;96983.91;10520656;28;20404;-57
2022/03/04 04:44:27;;;;;;;5.22;4.20;;;;;;;18.13;37.84;96971.56;10518737;28;20044;-56
2022/03/04 04:49:46;;;;;;;4.80;3.92;;;;;;;18.12;37.82;96963.78;10520020;28;20048;-56
2022/03/04 04:55:06;;;;;;;4.72;3.80;;;;;;;18.12;37.86;96969.16;10517643;28;20079;-56
2022/03/04 05:00:25;;;;;;;4.97;3.88;;;;;;;18.12;37.83;96979.97;10516884;28;20105;-56
2022/03/04 05:05:45;;;;;;;4.50;3.70;;;;;;;18.13;37.81;96984.22;10517018;28;20040;-56
2022/03/04 05:11:04;;;;;;;4.10;3.60;;;;;;;18.15;37.94;96995.50;10524907;28;20056;-56
2022/03/04 05:16:24;;;;;;;5.50;3.90;;;;;;;18.18;38.23;96986.78;10516501;28;20051;-57
2022/03/04 05:21:44;;;;;;;6.30;3.97;;;;;;;18.21;38.35;96986.19;10520754;28;20063;-56
2022/03/04 05:27:03;;;;;;;4.03;3.63;;;;;;;18.23;38.29;97010.94;10516468;28;20053;-55
2022/03/04 05:32:23;;;;;;;6.82;4.00;;;;;;;18.26;38.65;96999.53;10518344;28;20393;-57
2022/03/04 05:37:42;;;;;;;4.15;3.72;;;;;;;18.29;38.74;97001.59;10521532;28;20053;-56
2022/03/04 05:43:02;;;;;;;6.68;3.47;;;;;;;18.33;38.65;97009.88;10508995;28;20048;-56
2022/03/04 05:48:21;;;;;;;;;;;;;;;18.35;39.29;97021.16;10526168;28;20513;-57
2022/03/04 05:53:40;;;;;;;;;;;;;;;18.37;39.02;97018.94;10520533;28;20275;-55
2022/03/04 05:58:59;;;;;;;;;;;;;;;18.42;39.50;97020.69;10517305;28;19919;-56
2022/03/04 06:04:19;;;;;;;;;;;;;;;18.45;39.27;97022.78;10515571;28;19920;-55
2022/03/04 06:09:39;;;;;;;;;;;;;;;18.48;39.41;97035.63;10499652;28;19920;-55
2022/03/04 06:14:58;;;;;;;5.57;3.80;;;;;;;18.52;39.32;97037.41;10500808;28;19920;-56
2022/03/04 06:20:18;;;;;;;5.20;3.67;;;;;;;18.57;39.41;97047.25;10510786;28;20495;-55
2022/03/04 06:25:37;;;;;;;5.93;3.88;;;;;;;18.59;38.42;97047.75;10513514;28;20094;-56
2022/03/04 06:30:57;;;;;;;9.77;5.05;;;;;;;18.63;38.73;97059.50;10525681;28;20109;-55
2022/03/04 06:36:17;;;;;;;9.75;5.45;;;;;;;18.67;38.74;97063.16;10512114;28;20089;-56
2022/03/04 06:41:37;;;;;;;7.95;4.97;;;;;;;18.72;38.77;97062.25;10502634;28;20419;-55
2022/03/04 06:46:56;;;;;;;14.68;5.53;;;;;;;18.77;38.87;97076.38;10506496;28;20048;-56
2022/03/04 06:52:16;;;;;;;11.23;4.95;;;;;;;18.80;38.00;97075.00;10503114;28;20070;-57
2022/03/04 06:57:36;;;;;;;14.88;9.13;;;;;;;18.88;37.10;97081.53;10496644;28;20048;-56
2022/03/04 07:02:55;;;;;;;14.45;9.45;;;;;;;18.99;34.44;97080.13;10497399;28;20047;-56
2022/03/04 07:08:15;;;;;;;11.90;8.43;;;;;;;18.99;36.00;97077.44;10502821;28;20048;-56
2022/03/04 07:13:34;;;;;;;11.85;7.95;;;;;;;19.02;35.83;97082.22;10501862;28;20040;-56
2022/03/04 07:18:54;;;;;;;11.75;7.75;;;;;;;19.07;35.81;97078.56;10515861;28;20048;-55
2022/03/04 07:24:14;;;;;;;9.38;6.95;;;;;;;19.10;36.02;97081.44;10518354;28;20048;-56
2022/03/04 07:29:33;;;;;;;11.23;7.15;;;;;;;19.15;36.04;97085.88;10513186;28;20461;-56
2022/03/04 07:34:53;;;;;;;11.30;6.50;;;;;;;19.21;36.22;97094.63;10497183;28;20068;-56
2022/03/04 07:40:14;;;;;;;9.90;6.35;;;;;;;19.25;36.31;97084.78;10502713;28;20106;-55
2022/03/04 07:45:33;;;;;;;10.68;6.40;;;;;;;19.30;36.16;97090.06;10516626;28;20057;-55
2022/03/04 07:50:53;;;;;;;10.20;6.22;;;;;;;19.36;36.35;97096.91;10508823;28;20044;-55
2022/03/04 07:56:13;;;;;;;9.40;6.13;;;;;;;19.45;36.53;97105.03;10505226;28;20097;-56
2022/03/04 08:01:33;;;;;;;9.88;6.55;;;;;;;19.52;36.55;97100.75;10519905;28;20549;-56
2022/03/04 08:06:52;;;;;;;8.18;5.72;;;;;;;19.59;36.44;97107.59;10528239;28;20484;-53
2022/03/04 08:12:11;;;;;;;8.63;5.30;;;;;;;19.66;36.65;97113.31;10531469;28;20046;-55
2022/03/04 08:17:31;;;;;;;8.23;5.70;;;;;;;19.71;36.75;97116.69;10518977;28;20484;-55
2022/03/04 08:22:51;;;;;;;7.47;5.53;;;;;;;19.77;36.66;97122.72;10529436;28;20044;-56
2022/03/04 08:28:10;;;;;;;7.80;5.13;;;;;;;19.84;36.63;97116.88;10531630;28;20048;-56
2022/03/04 08:33:30;;;;;;;9.80;5.47;;;;;;;19.89;36.37;97114.78;10504962;28;20041;-55
2022/03/04 08:38:49;;;;;;;8.20;5.57;;;;;;;19.96;36.51;97125.13;10525449;28;20060;-56
2022/03/04 08:44:08;;;;;;;6.53;5.45;;;;;;;20.01;36.56;97110.63;10541313;28;20059;-56
2022/03/04 08:49:28;;;;;;;6.32;5.20;;;;;;;20.07;36.50;97125.59;10527121;28;20043;-55
2022/03/04 08:54:47;;;;;;;6.25;5.18;;;;;;;20.11;36.40;97119.25;10541783;28;20036;-55
2022/03/04 09:00:07;;;;;;;6.43;4.90;;;;;;;20.19;36.31;97125.75;10512855;28;20037;-56
2022/03/04 09:05:26;;;;;;;6.47;5.43;;;;;;;20.23;36.18;97134.81;10507430;28;20396;-55
2022/03/04 09:10:46;;;;;;;6.97;5.18;;;;;;;20.29;36.31;97128.13;10502659;28;20056;-57
2022/03/04 09:16:05;;;;;;;7.18;4.95;;;;;;;20.33;36.29;97134.47;10507414;28;20052;-54
2022/03/04 09:21:26;;;;;;;6.80;5.28;;;;;;;20.40;36.27;97139.38;10527085;28;20110;-56
2022/03/04 09:26:45;;;;;;;6.75;5.05;;;;;;;20.47;36.18;97144.31;10530771;28;20056;-55
2022/03/04 09:32:04;;;;;;;6.10;4.80;;;;;;;20.49;36.06;97142.88;10506994;28;20052;-56
2022/03/04 09:37:24;;;;;;;5.13;4.57;;;;;;;20.56;36.10;97142.38;10500785;28;20056;-55
2022/03/04 09:42:44;;;;;;;6.18;4.60;;;;;;;20.60;36.05;97145.28;10531248;28;20098;-55
2022/03/04 09:48:04;;;;;;;5.60;4.45;;;;;;;20.64;35.86;97144.31;10521609;28;20129;-55
2022/03/04 09:53:26;;;;;;;5.90;4.53;;;;;;;20.69;35.95;97151.47;10516857;28;20059;-57
2022/03/04 09:58:47;;;;;;;6.95;5.13;;;;;;;20.74;35.76;97146.66;10524365;28;20051;-56
2022/03/04 10:04:06;;;;;;;5.40;4.45;;;;;;;20.82;35.70;97155.09;10530396;28;20047;-57
2022/03/04 10:09:37;;;;;;;5.82;4.72;;;;;;;20.85;36.07;97149.81;10524913;28;20044;-57
2022/03/04 10:15:09;;;;;;;6.05;4.10;;;;;;;20.89;36.24;97145.31;10531962;28;20048;-58
2022/03/04 10:20:40;;;;;;;5.88;4.80;;;;;;;20.93;36.36;97150.91;10536102;28;20082;-58
2022/03/04 10:26:01;;;;;;;5.30;4.30;;;;;;;20.96;36.66;97160.31;10530288;28;20792;-58
2022/03/04 10:31:20;;;;;;;4.93;4.20;;;;;;;20.99;36.62;97160.44;10520501;28;20419;-58
2022/03/04 10:36:53;;;;;;;5.82;4.30;;;;;;;20.99;36.76;97163.13;10526379;28;20059;-58
2022/03/04 10:42:12;;;;;;;5.63;3.90;;;;;;;20.99;36.73;97162.34;10487430;28;20076;-57
2022/03/04 10:47:46;;;;;;;6.65;4.40;;;;;;;20.98;36.93;97158.84;10470495;28;20049;-57
2022/03/04 10:53:14;;;;;;;4.55;4.05;;;;;;;20.98;36.80;97158.06;10464341;28;20052;-58
2022/03/04 10:58:38;;;;;;;5.65;4.47;;;;;;;20.98;36.72;97161.56;10482727;28;20052;-57
2022/03/04 11:03:58;;;;;;;5.80;4.22;;;;;;;20.98;36.81;97158.06;10470391;28;20500;-57
2022/03/04 11:09:27;;;;;;;4.65;4.00;;;;;;;20.99;36.73;97157.72;10470527;28;20049;-57
2022/03/04 11:14:46;;;;;;;;;;;;;;;20.99;36.62;97160.44;10473333;28;20044;-58
2022/03/04 11:20:07;;;;;;;4.38;3.80;;;;;;;20.98;36.72;97153.44;10476621;28;20418;-58
2022/03/04 11:25:34;;;;;;;4.40;3.58;;;;;;;21.00;36.67;97166.66;10475817;28;20041;-57
2022/03/04 11:31:00;;;;;;;4.30;3.87;;;;;;;20.99;36.51;97167.78;10485979;28;20130;-57
2022/03/04 11:36:22;;;;;;;5.30;3.92;;;;;;;20.98;36.67;97163.50;10457250;28;20056;-57
2022/03/04 11:41:48;;;;;;;4.75;3.63;;;;;;;20.98;36.72;97169.69;10513483;28;20040;-58
2022/03/04 11:47:13;;;;;;;4.95;3.67;;;;;;;20.98;36.68;97166.19;10517294;28;20055;-58
2022/03/04 11:52:43;;;;;;;4.35;3.90;;;;;;;20.99;36.54;97168.56;10513501;28;21344;-58
2022/03/04 11:58:04;;;;;;;4.35;3.60;;;;;;;20.99;36.57;97165.84;10507171;28;20041;-57
2022/03/04 12:03:23;;;;;;;5.45;4.22;;;;;;;20.98;36.03;97169.69;10507438;28;20467;-58
2022/03/04 12:08:42;;;;;;;4.10;3.70;;;;;;;20.98;36.23;97166.19;10505134;28;20425;-58
2022/03/04 12:14:08;;;;;;;4.90;3.65;;;;;;;20.96;36.27;97171.94;10527300;28;20051;-57
2022/03/04 12:19:34;;;;;;;5.00;3.80;;;;;;;20.96;36.28;97174.63;10524912;28;20110;-58
2022/03/04 12:24:56;;;;;;;4.30;3.58;;;;;;;20.96;36.20;97171.94;10530113;28;20048;-58
2022/03/04 12:30:18;;;;;;;3.88;3.50;;;;;;;20.95;36.29;97173.03;10525731;28;20914;-58
2022/03/04 12:35:38;;;;;;;4.18;3.70;;;;;;;20.93;36.23;97170.66;10536864;28;20063;-57
2022/03/04 12:40:58;;;;;;;3.88;3.35;;;;;;;20.93;36.27;97173.38;10533674;28;20113;-57
2022/03/04 12:46:21;;;;;;;5.95;3.67;;;;;;;20.90;36.31;97174.00;10510036;28;20058;-59
2022/03/04 12:51:43;;;;;;;4.15;3.15;;;;;;;20.89;36.21;97177.81;10536892;28;20118;-58
2022/03/04 12:57:06;;;;;;;3.80;3.33;;;;;;;20.87;36.42;97179.28;10537703;28;20048;-58
2022/03/04 13:02:35;;;;;;;3.80;3.45;;;;;;;20.86;36.49;97177.69;10534911;28;20056;-58
2022/03/04 13:07:56;;;;;;;4.45;3.17;;;;;;;20.84;36.73;97185.34;10510393;28;20049;-58
2022/03/04 13:13:16;;;;;;;11.07;9.93;;;;;;;20.53;28.80;97170.88;10506394;28;20044;-58
2022/03/04 13:18:36;;;;;;;9.63;7.88;;;;;;;20.28;31.10;97166.31;10515407;28;20052;-58
2022/03/04 13:23:55;;;;;;;14.60;11.43;;;;;;;20.08;26.96;97170.47;10507106;28;20097;-58
2022/03/04 13:29:15;;;;;;;10.43;8.48;;;;;;;19.99;29.60;97166.94;10501863;28;20459;-57
2022/03/04 13:34:34;;;;;;;7.30;6.53;;;;;;;20.20;32.04;97169.81;10520942;28;20036;-57
2022/03/04 13:40:06;;;;;;;8.82;6.80;;;;;;;20.30;31.84;97167.56;10508782;28;20061;-58
2022/03/04 13:45:54;;;;;;;6.93;6.20;;;;;;;20.38;32.11;97162.47;10498580;28;20052;-57
2022/03/04 13:51:12;;;;;;;7.00;5.57;;;;;;;20.42;32.18;97163.44;10496574;28;20563;-57
2022/03/04 13:56:40;;;;;;;8.18;6.47;;;;;;;20.44;32.29;97161.19;10501095;28;20495;-57
2022/03/04 14:02:05;;;;;;;7.13;6.13;;;;;;;20.45;32.70;97168.22;10504313;28;20081;-57
2022/03/04 14:07:25;;;;;;;6.75;5.45;;;;;;;20.46;32.58;97164.38;10518156;28;20040;-58
2022/03/04 14:12:45;;;;;;;6.07;5.38;;;;;;;20.45;32.73;97162.78;10516727;28;20052;-57
2022/03/04 14:18:07;;;;;;;5.47;4.97;;;;;;;20.44;32.96;97156.56;10504746;28;20415;-57
2022/03/04 14:23:27;;;;;;;5.63;5.03;;;;;;;20.44;33.08;97161.19;10505551;28;20040;-57
2022/03/04 14:29:09;;;;;;;5.63;4.90;;;;;;;20.44;33.08;97164.69;10499765;28;20098;-57
2022/03/04 14:34:27;;;;;;;5.93;4.80;;;;;;;20.46;33.26;97165.16;10505363;28;20105;-57
2022/03/04 14:39:47;;;;;;;5.97;4.88;;;;;;;20.47;33.33;97176.81;10502181;28;20063;-58
2022/03/04 14:45:07;;;;;;;5.75;5.15;;;;;;;20.49;33.55;97182.69;10506251;28;20658;-57
2022/03/04 14:50:29;;;;;;;5.47;4.65;;;;;;;20.49;33.58;97175.34;10500330;28;20060;-57
2022/03/04 14:55:49;;;;;;;5.45;4.60;;;;;;;20.50;33.51;97170.72;10499063;28;20079;-57
2022/03/04 15:01:09;;;;;;;5.10;4.38;;;;;;;20.52;33.74;97173.91;10497487;28;20071;-58
2022/03/04 15:06:29;;;;;;;4.90;4.40;;;;;;;20.54;33.71;97177.09;10501189;28;20046;-57
2022/03/04 15:11:49;;;;;;;4.65;4.25;;;;;;;20.57;33.81;97173.75;10504373;28;20050;-58
2022/03/04 15:17:09;;;;;;;4.75;4.35;;;;;;;20.58;33.78;97178.06;10502923;28;20043;-57
2022/03/04 15:22:29;;;;;;;5.85;4.50;;;;;;;20.61;33.98;97174.72;10499145;28;20400;-57
2022/03/04 15:27:52;;;;;;;4.55;4.05;;;;;;;20.62;33.91;97179.03;10500204;28;20067;-57
2022/03/04 15:33:14;;;;;;;4.57;4.18;;;;;;;20.64;33.96;97190.34;10506133;28;20047;-57
2022/03/04 15:38:34;;;;;;;4.50;4.10;;;;;;;20.64;34.03;97193.03;10499348;28;20110;-57
2022/03/04 15:43:53;;;;;;;4.47;3.95;;;;;;;20.65;34.05;97191.13;10505405;28;20046;-57
2022/03/04 15:49:13;;;;;;;4.63;4.07;;;;;;;20.66;34.22;97196.22;10511381;28;20041;-57
2022/03/04 15:54:33;;;;;;;4.30;3.90;;;;;;;20.67;34.19;97197.81;10497751;28;20054;-58
2022/03/04 15:59:53;;;;;;;4.55;4.15;;;;;;;20.69;34.11;97198.28;10496535;28;20118;-57
2022/03/04 16:05:12;;;;;;;4.50;3.80;;;;;;;20.72;34.22;97205.75;10507508;28;20465;-57
2022/03/04 16:10:32;;;;;;;4.35;3.90;;;;;;;20.74;34.07;97203.53;10511965;28;20044;-57
2022/03/04 16:15:51;;;;;;;4.30;3.90;;;;;;;20.78;34.14;97208.28;10505292;28;20036;-58
2022/03/04 16:21:12;;;;;;;4.50;3.80;;;;;;;20.81;34.21;97207.66;10505283;28;20047;-57
2022/03/04 16:26:32;;;;;;;4.18;3.78;;;;;;;20.83;34.20;97210.84;10507711;28;20435;-57
2022/03/04 16:31:53;;;;;;;4.20;3.80;;;;;;;20.85;34.35;97205.88;10506651;28;20048;-58
2022/03/04 16:37:13;;;;;;;3.80;3.40;;;;;;;20.86;34.26;97221.03;10509131;28;20506;-57
2022/03/04 16:42:33;;;;;;;3.63;3.33;;;;;;;20.85;34.21;97214.78;10509878;28;20097;-57
2022/03/04 16:47:52;;;;;;;4.28;3.60;;;;;;;20.87;34.21;97219.91;10513542;28;20054;-57
2022/03/04 16:53:12;;;;;;;3.67;3.30;;;;;;;20.88;34.25;97225.00;10503274;28;20056;-58
2022/03/04 16:58:33;;;;;;;4.20;3.80;;;;;;;20.89;34.16;97220.38;10500720;28;20539;-57
2022/03/04 17:03:53;;;;;;;3.80;3.50;;;;;;;20.87;34.26;97211.78;10507009;28;20043;-58
2022/03/04 17:09:12;;;;;;;3.78;3.42;;;;;;;20.87;34.11;97211.78;10502782;28;20047;-58
2022/03/04 17:14:32;;;;;;;3.63;3.33;;;;;;;20.87;34.35;97209.06;10502381;28;20052;-57
2022/03/04 17:19:51;;;;;;;3.30;3.00;;;;;;;20.87;34.28;97207.16;10505197;28;20053;-58
2022/03/04 17:25:11;;;;;;;3.80;3.50;;;;;;;20.87;34.33;97219.91;10505444;28;20053;-57
2022/03/04 17:30:31;;;;;;;3.95;3.08;;;;;;;20.87;34.30;97209.06;10502732;28;20056;-57
2022/03/04 17:35:51;;;;;;;3.83;3.50;;;;;;;20.86;34.29;97224.53;10500256;28;20067;-57
2022/03/04 17:41:10;;;;;;;4.03;3.42;;;;;;;20.85;34.32;97222.91;10500921;28;20045;-58
2022/03/04 17:46:30;;;;;;;3.78;3.38;;;;;;;20.83;34.30;97225.16;10501944;28;20056;-58
2022/03/04 17:51:49;;;;;;;2.92;2.72;;;;;;;20.83;34.33;97227.06;10497806;28;20056;-57
2022/03/04 17:57:09;;;;;;;3.45;3.15;;;;;;;20.84;34.31;97237.59;10497657;28;20093;-58
2022/03/04 18:02:30;;;;;;;3.55;3.20;;;;;;;20.84;34.71;97234.09;10505592;28;20071;-58
2022/03/04 18:07:51;;;;;;;3.67;3.10;;;;;;;20.83;34.72;97237.91;10526176;28;20042;-58
2022/03/04 18:13:11;;;;;;;3.60;3.30;;;;;;;20.81;34.78;97234.72;10521993;28;20097;-58
2022/03/04 18:18:31;;;;;;;13.05;11.25;;;;;;;20.41;26.98;97240.31;10515585;28;20049;-58
2022/03/04 18:23:50;;;;;;;4.40;3.95;;;;;;;20.31;32.71;97242.22;10513995;28;20052;-58
2022/03/04 18:29:10;;;;;;;6.28;4.70;;;;;;;20.47;33.02;97247.16;10499212;28;20539;-59
2022/03/04 18:34:30;;;;;;;7.20;5.20;;;;;;;20.56;33.95;97239.81;10504157;28;20044;-58
2022/03/04 18:45:47;;;;;;;5.83;3.70;;;;;;;20.64;34.67;97247.19;10496421;28;20057;-55
2022/03/04 18:51:07;;;;;;;5.85;3.92;;;;;;;20.63;34.83;97253.69;10514026;28;20294;-57
2022/03/04 18:56:26;;;;;;;5.90;4.20;;;;;;;20.62;35.06;97251.31;10499125;28;20711;-57
2022/03/04 19:01:54;;;;;;;5.32;3.90;;;;;;;20.62;35.27;97254.84;10499433;28;20052;-57
2022/03/04 19:07:14;;;;;;;5.03;3.80;;;;;;;20.60;35.43;97248.13;10513936;28;20057;-56
2022/03/04 19:12:35;;;;;;;5.18;3.60;;;;;;;20.61;35.53;97252.44;10501651;28;20556;-59
2022/03/04 19:17:54;;;;;;;4.20;3.65;;;;;;;20.59;35.58;97247.34;10520978;28;20101;-56
2022/03/04 19:23:14;;;;;;;5.15;3.50;;;;;;;20.59;35.52;97246.53;10514148;28;21679;-58
2022/03/04 19:28:33;;;;;;;5.28;3.97;;;;;;;20.58;35.80;97248.44;10500230;28;20044;-55
2022/03/04 19:33:54;;;;;;;5.20;3.83;;;;;;;20.55;35.98;97249.84;10499408;28;20439;-56
2022/03/04 19:39:14;;;;;;;4.88;3.50;;;;;;;20.55;35.89;97254.47;10518665;28;20045;-57
2022/03/04 19:44:33;;;;;;;4.40;3.08;;;;;;;20.54;35.80;97255.59;10502381;28;20063;-58
2022/03/04 19:49:53;;;;;;;5.03;3.50;;;;;;;20.52;35.96;97255.94;10506360;28;20065;-59
2022/03/04 19:55:13;;;;;;;4.10;3.33;;;;;;;20.51;36.03;97258.94;10528581;28;20055;-56
2022/03/04 20:00:32;;;;;;;4.18;3.78;;;;;;;20.50;35.99;97258.16;10528674;28;20044;-57
2022/03/04 20:05:52;;;;;;;4.03;3.35;;;;;;;20.49;36.03;97258.47;10529270;28;20141;-56
2022/03/04 20:11:11;;;;;;;4.78;3.42;;;;;;;20.47;36.06;97258.78;10517701;28;20420;-55
2022/03/04 20:16:31;;;;;;;3.95;3.33;;;;;;;20.46;35.90;97256.38;10523365;28;20044;-56
2022/03/04 20:21:51;;;;;;;4.20;3.00;;;;;;;20.44;36.08;97253.19;10525944;28;20064;-56
2022/03/04 20:27:11;;;;;;;3.88;3.00;;;;;;;20.43;36.17;97246.22;10539822;28;20044;-57
2022/03/04 20:32:30;;;;;;;4.65;3.15;;;;;;;20.42;36.19;97255.44;10525218;28;20032;-56
2022/03/04 20:37:50;;;;;;;3.95;3.42;;;;;;;20.41;36.16;97251.94;10527710;28;20059;-57
2022/03/04 20:43:10;;;;;;;4.00;3.53;;;;;;;20.39;36.26;97256.88;10507826;28;20052;-58
2022/03/04 20:48:29;;;;;;;5.65;3.50;;;;;;;20.39;36.29;97264.22;10501504;28;20105;-57
2022/03/04 20:53:49;;;;;;;5.60;3.50;;;;;;;20.38;36.61;97262.59;10526026;28;20060;-58
2022/03/04 20:59:08;;;;;;;3.97;3.50;;;;;;;20.35;36.52;97267.53;10511267;28;20052;-57
2022/03/04 21:04:27;;;;;;;5.25;3.97;;;;;;;20.34;36.76;97265.94;10528599;28;20395;-58
2022/03/04 21:09:47;;;;;;;5.80;3.60;;;;;;;20.33;36.87;97271.69;10499882;28;20131;-56
2022/03/04 21:15:07;;;;;;;4.25;3.50;;;;;;;20.33;38.01;97269.75;10500180;28;20049;-56
2022/03/04 21:20:27;;;;;;;8.80;4.35;;;;;;;20.32;37.97;97273.56;10526714;28;20074;-52
2022/03/04 21:25:46;;;;;;;8.50;4.00;;;;;;;20.32;38.20;97272.78;10528819;28;20055;-55
2022/03/04 21:31:06;;;;;;;5.85;3.83;;;;;;;20.32;38.57;97270.06;10517507;28;20035;-53
2022/03/04 21:36:26;;;;;;;5.53;3.60;;;;;;;20.29;38.45;97263.41;10510015;28;20074;-57
2022/03/04 21:41:45;;;;;;;6.03;3.80;;;;;;;20.28;38.54;97258.28;10507569;28;20066;-57
2022/03/04 21:47:05;;;;;;;4.78;3.63;;;;;;;20.26;38.40;97266.72;10504631;28;20063;-56
2022/03/04 21:52:25;;;;;;;5.82;3.70;;;;;;;20.25;38.38;97270.56;10502806;28;20060;-58
2022/03/04 21:57:45;;;;;;;5.50;3.45;;;;;;;20.22;38.37;97260.34;10496984;28;20060;-58
2022/03/04 22:03:05;;;;;;;4.82;3.55;;;;;;;20.23;38.48;97261.16;10498882;28;20067;-58
2022/03/04 22:08:24;;;;;;;4.40;3.58;;;;;;;20.20;38.34;97249.06;10502091;28;20059;-58
2022/03/04 22:13:44;;;;;;;7.75;3.40;;;;;;;20.18;38.34;97254.00;10503683;28;20041;-59
2022/03/04 22:19:03;;;;;;;6.13;3.10;;;;;;;20.18;38.20;97253.19;10512322;28;20055;-56
2022/03/04 22:24:22;;;;;;;5.22;3.50;;;;;;;20.16;38.46;97256.22;10522485;28;20056;-55
2022/03/04 22:29:42;;;;;;;6.85;3.20;;;;;;;20.12;38.47;97249.84;10521690;28;20093;-53
2022/03/04 22:35:03;;;;;;;4.93;3.42;;;;;;;20.12;38.28;97247.16;10525844;28;20044;-55
2022/03/04 22:40:22;;;;;;;5.57;3.15;;;;;;;20.09;38.29;97248.59;10524246;28;20067;-56
2022/03/04 22:45:42;;;;;;;6.03;3.60;;;;;;;20.09;38.51;97245.88;10524904;28;20053;-58
2022/03/04 22:51:02;;;;;;;3.30;2.90;;;;;;;20.09;38.13;97242.34;10530030;28;20043;-58
2022/03/04 22:56:21;;;;;;;3.75;3.15;;;;;;;20.06;38.08;97230.28;10517575;28;20087;-58
2022/03/04 23:01:41;;;;;;;6.00;2.92;;;;;;;20.06;38.09;97226.78;10515300;28;20053;-58
2022/03/04 23:12:39;;;;;;;;;;;;;;;20.01;37.61;97229.63;10523403;28;20518;-58
2022/03/04 23:17:59;;;;;;;4.13;3.08;;;;;;;20.00;37.77;97230.75;10499807;28;19971;-58
2022/03/04 23:23:18;;;;;;;3.03;2.65;;;;;;;19.98;37.64;97225.66;10505486;28;20074;-58
2022/03/04 23:28:37;;;;;;;3.97;2.78;;;;;;;19.95;37.63;97221.69;10495883;28;20046;-58
2022/03/04 23:33:57;;;;;;;3.03;2.70;;;;;;;19.94;37.48;97233.59;10518854;28;20062;-58
2022/03/04 23:39:17;;;;;;;4.68;2.72;;;;;;;19.92;37.54;97230.41;10510690;28;20052;-58
2022/03/04 23:44:36;;;;;;;4.97;2.90;;;;;;;19.91;37.56;97234.22;10522497;28;20048;-58
2022/03/04 23:49:56;;;;;;;3.92;2.67;;;;;;;19.90;37.50;97224.53;10503923;28;20045;-58
2022/03/04 23:55:15;;;;;;;3.30;2.90;;;;;;;19.88;37.46;97232.16;10505501;28;20063;-58
